Time,TemperatureF,DewpointF,PressureIn,WindDirection,WindDirectionDegrees,WindSpeedMPH,WindSpeedGustMPH,Humidity,HourlyPrecipIn,Conditions,Clouds,dailyrainin,SoftwareType,DateUTC
2013-03-29 00:00:00,54.9,38.1,29.96,WSW,237,8.1,8.1,53,0.00,OVC,,0.00,WeatherDisplay:10.37,2013-03-29 07:00:00,
2013-03-29 00:05:00,54.5,37.7,29.96,WSW,237,6.0,6.0,53,0.00,OVC,,0.00,WeatherDisplay:10.37,2013-03-29 07:05:00,
2013-03-29 00:10:00,54.6,36.3,29.97,WSW,237,6.9,6.9,50,0.00,OVC,,0.00,WeatherDisplay:10.37,2013-03-29 07:10:00,
2013-03-29 00:16:00,54.4,35.6,29.96,SW,234,6.9,6.9,49,0.00,OVC,,0.00,WeatherDisplay:10.37,2013-03-29 07:16:00,
2013-03-29 00:21:00,53.5,35.3,29.96,WSW,242,7.0,7.0,50,0.00,OVC,,0.00,WeatherDisplay:10.37,2013-03-29 07:21:00,
2013-03-29 00:26:00,51.2,33.7,29.96,SSW,209,7.0,7.0,51,0.00,OVC,,0.00,WeatherDisplay:10.37,2013-03-29 07:26:00,
2013-03-29 00:31:00,50.8,33.8,29.96,WSW,240,9.2,9.2,52,0.00,OVC,,0.00,WeatherDisplay:10.37,2013-03-29 07:31:00,
2013-03-29 00:37:00,51.2,33.7,29.97,West,259,6.9,6.9,51,0.00,OVC,,0.00,WeatherDisplay:10.37,2013-03-29 07:37:00,
2013-03-29 00:42:00,50.5,33.5,29.96,West,259,5.0,5.0,52,0.00,CLR,,0.00,WeatherDisplay:10.37,2013-03-29 07:42:00,
2013-03-29 00:47:00,49.9,33.4,29.96,West,259,3.5,3.5,53,0.00,OVC,,0.00,WeatherDisplay:10.37,2013-03-29 07:47:00,
2013-03-29 00:52:00,49.8,34.7,29.96,West,259,4.0,4.0,56,0.00,OVC,,0.00,WeatherDisplay:10.37,2013-03-29 07:52:00,
2013-03-29 00:58:00,50.5,35.8,29.97,West,259,4.6,4.6,57,0.00,OVC,,0.00,WeatherDisplay:10.37,2013-03-29 07:58:00,
2013-03-29 01:03:00,50.5,35.4,29.97,SSW,209,6.0,6.0,56,0.00,OVC,,0.00,WeatherDisplay:10.37,2013-03-29 08:03:00,
2013-03-29 01:08:00,49.3,34.7,29.97,SSW,202,9.0,12.0,57,0.00,CLR,,0.00,WeatherDisplay:10.37,2013-03-29 08:08:00,
2013-03-29 01:13:00,50.0,35.4,29.97,SSW,194,8.0,10.0,57,0.00,CLR,,0.00,WeatherDisplay:10.37,2013-03-29 08:13:00,
2013-03-29 01:18:00,50.5,34.9,29.97,SW,225,4.6,4.6,55,0.00,OVC,,0.00,WeatherDisplay:10.37,2013-03-29 08:18:00,
2013-03-29 01:23:00,49.6,34.5,29.97,SW,221,6.0,6.0,56,0.00,OVC,,0.00,WeatherDisplay:10.37,2013-03-29 08:23:00,
2013-03-29 01:28:00,49.3,34.7,29.97,SW,221,3.5,3.5,57,0.00,OVC,,0.00,WeatherDisplay:10.37,2013-03-29 08:28:00,
2013-03-29 01:33:00,49.3,33.8,29.98,West,267,3.5,3.5,55,0.00,OVC,,0.00,WeatherDisplay:10.37,2013-03-29 08:33:00,
2013-03-29 01:38:00,49.3,36.0,29.98,West,266,3.5,3.5,60,0.00,OVC,,0.00,WeatherDisplay:10.37,2013-03-29 08:38:00,
2013-03-29 01:43:00,50.7,36.9,29.98,West,266,3.5,3.5,59,0.00,OVC,,0.00,WeatherDisplay:10.37,2013-03-29 08:43:00,
2013-03-29 01:48:00,51.4,36.2,29.98,West,266,3.5,3.5,56,0.00,OVC,,0.00,WeatherDisplay:10.37,2013-03-29 08:48:00,
2013-03-29 01:54:00,51.5,36.3,29.97,West,266,4.0,4.0,56,0.00,OVC,,0.00,WeatherDisplay:10.37,2013-03-29 08:54:00,
2013-03-29 01:59:00,52.4,38.0,29.97,West,261,6.0,6.0,58,0.00,OVC,,0.00,WeatherDisplay:10.37,2013-03-29 08:59:00,
2013-03-29 02:04:00,53.5,39.1,29.97,WSW,244,6.0,6.0,58,0.00,OVC,,0.00,WeatherDisplay:10.37,2013-03-29 09:04:00,
2013-03-29 02:09:00,54.1,40.1,29.97,SW,232,8.0,8.0,59,0.00,OVC,,0.00,WeatherDisplay:10.37,2013-03-29 09:09:00,
2013-03-29 02:14:00,53.7,38.8,29.97,SW,227,6.0,6.0,57,0.00,OVC,,0.00,WeatherDisplay:10.37,2013-03-29 09:14:00,
2013-03-29 02:19:00,52.6,37.3,29.97,SSW,195,6.0,6.0,56,0.00,OVC,,0.00,WeatherDisplay:10.37,2013-03-29 09:19:00,
2013-03-29 02:24:00,50.3,35.2,29.97,South,188,6.0,6.0,56,0.00,OVC,,0.00,WeatherDisplay:10.37,2013-03-29 09:24:00,
2013-03-29 02:30:00,48.3,31.9,29.97,SSW,203,6.9,6.9,53,0.00,OVC,,0.00,WeatherDisplay:10.37,2013-03-29 09:30:00,
2013-03-29 02:35:00,46.4,32.4,29.97,SSW,209,5.8,5.8,58,0.00,OVC,,0.00,WeatherDisplay:10.37,2013-03-29 09:35:00,
2013-03-29 02:40:00,44.5,29.8,29.97,SW,218,6.0,6.0,56,0.00,OVC,,0.00,WeatherDisplay:10.37,2013-03-29 09:40:00,
2013-03-29 02:45:00,43.8,30.8,29.97,SW,221,5.8,5.8,60,0.00,OVC,,0.00,WeatherDisplay:10.37,2013-03-29 09:45:00,
2013-03-29 02:50:00,44.1,31.1,29.97,SW,219,7.0,7.0,60,0.00,OVC,,0.00,WeatherDisplay:10.37,2013-03-29 09:50:00,
2013-03-29 02:55:00,44.7,32.1,29.97,SW,229,8.1,8.1,61,0.00,OVC,,0.00,WeatherDisplay:10.37,2013-03-29 09:55:00,
2013-03-29 03:01:00,46.2,33.1,29.97,SW,235,7.0,7.0,60,0.00,OVC,,0.00,WeatherDisplay:10.37,2013-03-29 10:01:00,
2013-03-29 03:06:00,46.7,32.7,29.97,SW,235,4.6,4.6,58,0.00,OVC,,0.00,WeatherDisplay:10.37,2013-03-29 10:06:00,
2013-03-29 03:11:00,46.3,32.3,29.97,SW,235,2.3,2.3,58,0.00,OVC,,0.00,WeatherDisplay:10.37,2013-03-29 10:11:00,
2013-03-29 03:16:00,45.8,31.9,29.97,SW,235,0.0,0.0,58,0.00,OVC,,0.00,WeatherDisplay:10.37,2013-03-29 10:16:00,
2013-03-29 03:21:00,44.4,31.0,29.97,SSE,159,5.0,5.0,59,0.00,OVC,,0.00,WeatherDisplay:10.37,2013-03-29 10:21:00,
2013-03-29 03:26:00,44.3,31.7,29.97,South,188,8.1,8.1,61,0.00,OVC,,0.00,WeatherDisplay:10.37,2013-03-29 10:26:00,
2013-03-29 03:32:00,44.4,31.8,29.97,SSW,204,6.0,6.0,61,0.00,OVC,,0.00,WeatherDisplay:10.37,2013-03-29 10:32:00,
2013-03-29 03:37:00,44.4,31.8,29.97,SSW,204,4.6,4.6,61,0.00,OVC,,0.00,WeatherDisplay:10.37,2013-03-29 10:37:00,
2013-03-29 03:42:00,43.8,30.8,29.97,South,176,6.0,6.0,60,0.00,OVC,,0.00,WeatherDisplay:10.37,2013-03-29 10:42:00,
2013-03-29 03:48:00,43.4,31.6,29.97,South,176,6.0,6.0,63,0.00,OVC,,0.00,WeatherDisplay:10.37,2013-03-29 10:48:00,
2013-03-29 03:53:00,44.0,32.2,29.97,South,182,5.0,6.0,63,0.00,CLR,,0.00,WeatherDisplay:10.37,2013-03-29 10:53:00,
2013-03-29 03:58:00,44.5,32.7,29.97,South,190,6.0,6.0,63,0.00,CLR,,0.00,WeatherDisplay:10.37,2013-03-29 10:58:00,
2013-03-29 04:03:00,44.7,32.1,29.97,SSW,192,5.0,6.0,61,0.00,CLR,,0.00,WeatherDisplay:10.37,2013-03-29 11:03:00,
2013-03-29 04:08:00,44.7,31.6,29.97,SSW,194,7.0,7.0,60,0.00,CLR,,0.00,WeatherDisplay:10.37,2013-03-29 11:08:00,
2013-03-29 04:13:00,45.6,32.5,29.97,SSW,208,7.0,8.0,60,0.00,CLR,,0.00,WeatherDisplay:10.37,2013-03-29 11:13:00,
2013-03-29 04:18:00,46.0,32.5,29.97,SW,222,7.0,7.0,59,0.00,OVC,,0.00,WeatherDisplay:10.37,2013-03-29 11:18:00,
2013-03-29 04:23:00,45.2,31.7,29.97,SW,225,6.0,6.0,59,0.00,OVC,,0.00,WeatherDisplay:10.37,2013-03-29 11:23:00,
2013-03-29 04:28:00,44.2,31.2,29.97,WSW,254,5.8,5.8,60,0.00,OVC,,0.00,WeatherDisplay:10.37,2013-03-29 11:28:00,
2013-03-29 04:33:00,43.3,31.1,29.97,WNW,288,6.0,6.0,62,0.00,OVC,,0.00,WeatherDisplay:10.37,2013-03-29 11:33:00,
2013-03-29 04:39:00,42.4,30.7,29.97,West,260,2.3,2.3,63,0.00,OVC,,0.00,WeatherDisplay:10.37,2013-03-29 11:39:00,
2013-03-29 04:44:00,42.1,31.2,29.97,WSW,251,2.0,2.0,65,0.00,OVC,,0.00,WeatherDisplay:10.37,2013-03-29 11:44:00,
2013-03-29 04:49:00,42.4,32.2,29.97,SSW,195,6.0,6.0,67,0.00,OVC,,0.00,WeatherDisplay:10.37,2013-03-29 11:49:00,
2013-03-29 04:54:00,42.7,32.1,29.97,SSW,209,2.3,2.3,66,0.00,OVC,,0.00,WeatherDisplay:10.37,2013-03-29 11:54:00,
2013-03-29 04:59:00,42.9,31.9,29.97,SSW,209,2.3,2.3,65,0.00,OVC,,0.00,WeatherDisplay:10.37,2013-03-29 11:59:00,
2013-03-29 05:04:00,42.8,32.2,29.97,SSW,209,3.5,3.5,66,0.00,OVC,,0.00,WeatherDisplay:10.37,2013-03-29 12:04:00,
2013-03-29 05:10:00,44.0,33.7,29.97,SSW,209,4.0,4.0,67,0.00,OVC,,0.00,WeatherDisplay:10.37,2013-03-29 12:10:00,
2013-03-29 05:15:00,44.1,31.9,29.97,SSW,209,6.0,6.0,62,0.00,OVC,,0.00,WeatherDisplay:10.37,2013-03-29 12:15:00,
2013-03-29 05:20:00,43.6,31.4,29.97,SW,217,6.0,6.0,62,0.00,OVC,,0.00,WeatherDisplay:10.37,2013-03-29 12:20:00,
2013-03-29 05:25:00,43.7,31.9,29.97,SW,215,6.0,6.0,63,0.00,OVC,,0.00,WeatherDisplay:10.37,2013-03-29 12:25:00,
2013-03-29 05:30:00,44.1,31.9,29.97,SW,219,7.0,7.0,62,0.00,OVC,,0.00,WeatherDisplay:10.37,2013-03-29 12:30:00,
2013-03-29 05:35:00,44.4,32.2,29.97,SW,224,6.0,6.0,62,0.00,OVC,,0.00,WeatherDisplay:10.37,2013-03-29 12:35:00,
2013-03-29 05:40:00,44.9,31.8,29.97,South,184,7.0,7.0,60,0.00,OVC,,0.00,WeatherDisplay:10.37,2013-03-29 12:40:00,
2013-03-29 05:45:00,44.2,31.2,29.97,SSW,192,8.0,8.0,60,0.00,OVC,,0.00,WeatherDisplay:10.37,2013-03-29 12:45:00,
2013-03-29 05:51:00,43.3,31.1,29.97,SSW,200,6.0,6.0,62,0.00,OVC,,0.00,WeatherDisplay:10.37,2013-03-29 12:51:00,
2013-03-29 05:56:00,42.4,30.7,29.97,SSW,209,7.0,7.0,63,0.00,OVC,,0.00,WeatherDisplay:10.37,2013-03-29 12:56:00,
2013-03-29 06:02:00,42.0,30.7,29.98,SW,217,7.0,7.0,64,0.00,OVC,,0.00,WeatherDisplay:10.37,2013-03-29 13:02:00,
2013-03-29 06:07:00,41.7,30.4,29.98,SSW,211,6.9,6.9,64,0.00,OVC,,0.00,WeatherDisplay:10.37,2013-03-29 13:07:00,
2013-03-29 06:12:00,41.7,30.4,29.98,SSW,209,7.0,7.0,64,0.00,OVC,,0.00,WeatherDisplay:10.37,2013-03-29 13:12:00,
2013-03-29 06:17:00,41.7,30.8,29.98,SW,215,7.0,7.0,65,0.00,OVC,,0.00,WeatherDisplay:10.37,2013-03-29 13:17:00,
2013-03-29 06:22:00,41.7,30.4,29.98,SW,225,5.0,5.0,64,0.00,OVC,,0.00,WeatherDisplay:10.37,2013-03-29 13:22:00,
2013-03-29 06:27:00,42.0,30.7,29.98,SW,225,5.0,5.0,64,0.00,OVC,,0.00,WeatherDisplay:10.37,2013-03-29 13:27:00,
2013-03-29 06:32:00,41.9,30.6,29.98,SW,225,3.5,3.5,64,0.00,OVC,,0.00,WeatherDisplay:10.37,2013-03-29 13:32:00,
2013-03-29 06:38:00,41.8,30.5,29.98,SW,225,2.0,4.0,64,0.00,CLR,,0.00,WeatherDisplay:10.37,2013-03-29 13:38:00,
2013-03-29 06:43:00,40.9,29.7,29.98,SSW,205,5.0,6.0,64,0.00,CLR,,0.00,WeatherDisplay:10.37,2013-03-29 13:43:00,
2013-03-29 06:48:00,40.5,30.4,29.99,South,180,9.0,10.0,67,0.00,CLR,,0.00,WeatherDisplay:10.37,2013-03-29 13:48:00,
2013-03-29 06:53:00,42.1,31.6,29.99,South,187,8.1,8.1,66,0.00,OVC,,0.00,WeatherDisplay:10.37,2013-03-29 13:53:00,
2013-03-29 06:58:00,43.0,31.6,29.99,South,185,8.0,9.0,64,0.00,CLR,,0.00,WeatherDisplay:10.37,2013-03-29 13:58:00,
2013-03-29 07:03:00,43.2,32.9,29.99,South,188,7.0,9.0,67,0.00,CLR,,0.00,WeatherDisplay:10.37,2013-03-29 14:03:00,
2013-03-29 07:08:00,43.2,33.3,30.00,SSW,192,2.0,7.0,68,0.00,CLR,,0.00,WeatherDisplay:10.37,2013-03-29 14:08:00,
2013-03-29 07:13:00,43.4,33.5,30.00,SSW,196,0.0,1.0,68,0.00,CLR,,0.00,WeatherDisplay:10.37,2013-03-29 14:13:00,
2013-03-29 07:18:00,43.8,33.2,30.00,SSW,196,0.0,2.0,66,0.00,CLR,,0.00,WeatherDisplay:10.37,2013-03-29 14:18:00,
2013-03-29 07:23:00,44.4,33.3,30.00,SSW,196,0.0,2.0,65,0.00,CLR,,0.00,WeatherDisplay:10.37,2013-03-29 14:23:00,
2013-03-29 07:28:00,44.9,33.5,30.01,SSW,196,0.0,2.0,64,0.00,CLR,,0.00,WeatherDisplay:10.37,2013-03-29 14:28:00,
2013-03-29 07:33:00,45.7,33.8,30.01,SSW,196,0.0,1.0,63,0.00,CLR,,0.00,WeatherDisplay:10.37,2013-03-29 14:33:00,
2013-03-29 07:38:00,45.8,33.5,30.01,WNW,290,3.0,4.0,62,0.00,CLR,,0.00,WeatherDisplay:10.37,2013-03-29 14:38:00,
2013-03-29 07:43:00,46.1,33.8,30.01,NNW,340,5.0,5.0,62,0.00,CLR,,0.00,WeatherDisplay:10.37,2013-03-29 14:43:00,
2013-03-29 07:48:00,46.3,33.9,30.01,North,352,7.0,9.0,62,0.00,CLR,,0.00,WeatherDisplay:10.37,2013-03-29 14:48:00,
2013-03-29 07:53:00,46.1,34.2,30.01,NNW,346,7.0,10.0,63,0.00,CLR,,0.00,WeatherDisplay:10.37,2013-03-29 14:53:00,
2013-03-29 07:58:00,46.2,34.7,30.01,NNW,340,5.0,8.0,64,0.00,CLR,,0.00,WeatherDisplay:10.37,2013-03-29 14:58:00,
2013-03-29 08:03:00,46.8,35.3,30.01,NNW,343,3.0,5.0,64,0.00,CLR,,0.00,WeatherDisplay:10.37,2013-03-29 15:03:00,
2013-03-29 08:08:00,48.2,35.8,30.01,North,349,2.0,4.0,62,0.00,CLR,,0.00,WeatherDisplay:10.37,2013-03-29 15:08:00,
2013-03-29 08:13:00,49.4,35.7,30.01,North,5,5.0,5.0,59,0.00,CLR,,0.00,WeatherDisplay:10.37,2013-03-29 15:13:00,
2013-03-29 08:18:00,50.3,36.1,30.01,NNE,17,5.0,5.0,58,0.00,CLR,,0.00,WeatherDisplay:10.37,2013-03-29 15:18:00,
2013-03-29 08:23:00,51.2,36.5,30.01,NNE,17,5.0,5.0,57,0.00,CLR,,0.00,WeatherDisplay:10.37,2013-03-29 15:23:00,
2013-03-29 08:28:00,51.9,36.2,30.01,NNE,19,3.5,3.5,55,0.00,CLR,,0.00,WeatherDisplay:10.37,2013-03-29 15:28:00,
2013-03-29 08:34:00,52.6,35.9,30.01,NNE,19,4.6,4.6,53,0.00,CLR,,0.00,WeatherDisplay:10.37,2013-03-29 15:34:00,
2013-03-29 08:39:00,53.0,35.8,30.01,NNE,30,5.0,5.0,52,0.00,CLR,,0.00,WeatherDisplay:10.37,2013-03-29 15:39:00,
2013-03-29 08:44:00,53.2,35.5,30.01,NE,46,4.6,4.6,51,0.00,CLR,,0.00,WeatherDisplay:10.37,2013-03-29 15:44:00,
2013-03-29 08:49:00,53.7,36.5,30.02,NE,53,4.0,4.0,52,0.00,CLR,,0.00,WeatherDisplay:10.37,2013-03-29 15:49:00,
2013-03-29 08:54:00,54.1,35.9,30.01,NE,54,3.5,3.5,50,0.00,CLR,,0.00,WeatherDisplay:10.37,2013-03-29 15:54:00,
2013-03-29 08:59:00,54.9,36.1,30.02,NE,54,3.5,3.5,49,0.00,CLR,,0.00,WeatherDisplay:10.37,2013-03-29 15:59:00,
2013-03-29 09:04:00,55.7,36.3,30.02,NE,54,3.5,3.5,48,0.00,CLR,,0.00,WeatherDisplay:10.37,2013-03-29 16:04:00,
2013-03-29 09:10:00,56.0,36.0,30.02,ENE,67,4.6,4.6,47,0.00,CLR,,0.00,WeatherDisplay:10.37,2013-03-29 16:10:00,
2013-03-29 09:15:00,56.3,35.8,30.02,ENE,67,3.5,3.5,46,0.00,CLR,,0.00,WeatherDisplay:10.37,2013-03-29 16:15:00,
2013-03-29 09:20:00,56.5,36.0,30.02,ENE,67,2.3,2.3,46,0.00,CLR,,0.00,WeatherDisplay:10.37,2013-03-29 16:20:00,
2013-03-29 09:25:00,57.8,36.6,30.02,NE,54,4.0,4.0,45,0.00,CLR,,0.00,WeatherDisplay:10.37,2013-03-29 16:25:00,
2013-03-29 09:30:00,59.2,37.3,30.02,NNE,32,4.0,4.0,44,0.00,CLR,,0.00,WeatherDisplay:10.37,2013-03-29 16:30:00,
2013-03-29 09:35:00,61.0,37.1,30.03,NE,34,3.5,3.5,41,0.00,CLR,,0.00,WeatherDisplay:10.37,2013-03-29 16:35:00,
2013-03-29 09:41:00,61.8,37.2,30.03,NE,34,1.1,1.1,40,0.00,CLR,,0.00,WeatherDisplay:10.37,2013-03-29 16:41:00,
2013-03-29 09:46:00,63.2,37.8,30.03,NNE,26,4.0,4.0,39,0.00,CLR,,0.00,WeatherDisplay:10.37,2013-03-29 16:46:00,
2013-03-29 09:51:00,64.2,38.0,30.03,NNE,26,3.5,3.5,38,0.00,CLR,,0.00,WeatherDisplay:10.37,2013-03-29 16:51:00,
2013-03-29 09:56:00,65.5,37.8,30.03,North,9,3.5,3.5,36,0.00,CLR,,0.00,WeatherDisplay:10.37,2013-03-29 16:56:00,
2013-03-29 10:01:00,65.5,37.8,30.03,North,9,1.1,1.1,36,0.00,CLR,,0.00,WeatherDisplay:10.37,2013-03-29 17:01:00,
2013-03-29 10:06:00,66.2,37.7,30.03,North,9,3.5,3.5,35,0.00,OVC,,0.00,WeatherDisplay:10.37,2013-03-29 17:06:00,
2013-03-29 10:11:00,67.0,38.4,30.02,North,9,4.0,4.0,35,0.00,OVC,,0.00,WeatherDisplay:10.37,2013-03-29 17:11:00,
2013-03-29 10:17:00,67.9,38.5,30.02,NW,325,3.5,3.5,34,0.00,OVC,,0.00,WeatherDisplay:10.37,2013-03-29 17:17:00,
2013-03-29 10:22:00,68.1,38.7,30.02,NW,325,1.1,0.0,34,0.00,OVC,,0.00,WeatherDisplay:10.37,2013-03-29 17:22:00,
2013-03-29 10:27:00,69.4,39.0,30.02,NNE,30,3.5,3.5,33,0.00,OVC,,0.00,WeatherDisplay:10.37,2013-03-29 17:27:00,
2013-03-29 10:32:00,70.4,39.1,30.02,NNE,18,4.0,4.0,32,0.00,OVC,,0.00,WeatherDisplay:10.37,2013-03-29 17:32:00,
2013-03-29 10:37:00,70.4,39.1,30.02,North,349,3.0,3.0,32,0.00,OVC,,0.00,WeatherDisplay:10.37,2013-03-29 17:37:00,
2013-03-29 10:42:00,71.2,39.8,30.02,NNE,19,4.0,4.0,32,0.00,OVC,,0.00,WeatherDisplay:10.37,2013-03-29 17:42:00,
2013-03-29 10:47:00,72.5,39.3,30.02,North,10,5.0,5.0,30,0.00,OVC,,0.00,WeatherDisplay:10.37,2013-03-29 17:47:00,
2013-03-29 10:53:00,72.8,39.5,30.01,NE,37,2.3,2.3,30,0.00,OVC,,0.00,WeatherDisplay:10.37,2013-03-29 17:53:00,
2013-03-29 10:58:00,72.3,38.3,30.01,NNE,33,1.0,3.0,29,0.00,CLR,,0.00,WeatherDisplay:10.37,2013-03-29 17:58:00,
2013-03-29 11:03:00,72.3,39.1,30.01,NE,47,3.0,5.0,30,0.00,CLR,,0.00,WeatherDisplay:10.37,2013-03-29 18:03:00,
2013-03-29 11:08:00,72.4,39.2,30.01,ENE,57,2.0,7.0,30,0.00,CLR,,0.00,WeatherDisplay:10.37,2013-03-29 18:08:00,
2013-03-29 11:13:00,71.9,37.9,30.01,East,94,4.6,4.6,29,0.00,OVC,,0.00,WeatherDisplay:10.37,2013-03-29 18:13:00,
2013-03-29 11:18:00,71.5,38.5,30.01,East,93,0.0,3.0,30,0.00,CLR,,0.00,WeatherDisplay:10.37,2013-03-29 18:18:00,
2013-03-29 11:23:00,72.2,38.2,30.01,ENE,63,9.0,9.0,29,0.00,OVC,,0.00,WeatherDisplay:10.37,2013-03-29 18:23:00,
2013-03-29 11:28:00,72.2,36.3,30.01,East,87,1.1,1.1,27,0.00,OVC,,0.00,WeatherDisplay:10.37,2013-03-29 18:28:00,
2013-03-29 11:33:00,73.6,35.6,30.01,NNE,22,5.8,5.8,25,0.00,OVC,,0.00,WeatherDisplay:10.37,2013-03-29 18:33:00,
2013-03-29 11:38:00,74.2,36.1,30.01,WNW,303,4.6,4.6,25,0.00,OVC,,0.00,WeatherDisplay:10.37,2013-03-29 18:38:00,
2013-03-29 11:43:00,75.0,36.8,30.01,ENE,65,6.9,6.9,25,0.00,OVC,,0.00,WeatherDisplay:10.37,2013-03-29 18:43:00,
2013-03-29 11:49:00,74.2,36.1,30.01,ENE,67,6.9,6.9,25,0.00,OVC,,0.00,WeatherDisplay:10.37,2013-03-29 18:49:00,
2013-03-29 11:54:00,73.3,35.3,30.01,ESE,104,6.9,6.9,25,0.00,OVC,,0.00,WeatherDisplay:10.37,2013-03-29 18:54:00,
2013-03-29 11:59:00,72.7,34.8,30.00,South,173,3.0,3.0,25,0.00,OVC,,0.00,WeatherDisplay:10.37,2013-03-29 18:59:00,
2013-03-29 12:04:00,73.2,35.2,30.00,West,259,2.0,2.0,25,0.00,OVC,,0.00,WeatherDisplay:10.37,2013-03-29 19:04:00,
2013-03-29 12:09:00,74.7,35.5,30.00,NW,304,3.5,0.0,24,0.00,OVC,,0.00,WeatherDisplay:10.37,2013-03-29 19:09:00,
2013-03-29 12:15:00,74.7,36.5,30.00,SSE,158,9.2,9.2,25,0.00,OVC,,0.00,WeatherDisplay:10.37,2013-03-29 19:15:00,
2013-03-29 12:20:00,73.9,34.8,30.00,SE,132,12.0,12.0,24,0.00,OVC,,0.00,WeatherDisplay:10.37,2013-03-29 19:20:00,
2013-03-29 12:25:00,73.4,35.4,30.00,SE,144,10.4,10.4,25,0.00,OVC,,0.00,WeatherDisplay:10.37,2013-03-29 19:25:00,
2013-03-29 12:30:00,73.2,36.2,30.00,South,187,4.6,4.6,26,0.00,OVC,,0.00,WeatherDisplay:10.37,2013-03-29 19:30:00,
2013-03-29 12:35:00,73.9,34.8,30.00,West,279,9.2,9.2,24,0.00,OVC,,0.00,WeatherDisplay:10.37,2013-03-29 19:35:00,
2013-03-29 12:40:00,74.2,36.1,30.00,East,83,11.5,11.5,25,0.00,OVC,,0.00,WeatherDisplay:10.37,2013-03-29 19:40:00,
2013-03-29 12:45:00,73.9,35.8,30.00,South,185,8.1,8.1,25,0.00,OVC,,0.00,WeatherDisplay:10.37,2013-03-29 19:45:00,
2013-03-29 12:51:00,73.9,35.8,29.99,West,274,6.0,6.0,25,0.00,OVC,,0.00,WeatherDisplay:10.37,2013-03-29 19:51:00,
2013-03-29 12:56:00,74.2,36.1,29.99,NW,306,3.5,3.5,25,0.00,OVC,,0.00,WeatherDisplay:10.37,2013-03-29 19:56:00,
2013-03-29 13:01:00,74.7,36.5,29.98,South,190,7.0,7.0,25,0.00,OVC,,0.00,WeatherDisplay:10.37,2013-03-29 20:01:00,
2013-03-29 13:07:00,74.5,37.3,29.98,South,173,5.8,5.8,26,0.00,OVC,,0.00,WeatherDisplay:10.37,2013-03-29 20:07:00,
2013-03-29 13:12:00,74.4,36.3,29.98,South,183,8.1,8.1,25,0.00,OVC,,0.00,WeatherDisplay:10.37,2013-03-29 20:12:00,
2013-03-29 13:17:00,74.6,36.4,29.98,SSW,200,5.8,5.8,25,0.00,OVC,,0.00,WeatherDisplay:10.37,2013-03-29 20:17:00,
2013-03-29 13:23:00,74.8,36.6,29.98,South,186,6.9,6.9,25,0.00,OVC,,0.00,WeatherDisplay:10.37,2013-03-29 20:23:00,
2013-03-29 13:28:00,75.8,37.4,29.97,SSE,163,3.0,8.0,25,0.00,CLR,,0.00,WeatherDisplay:10.37,2013-03-29 20:28:00,
2013-03-29 13:33:00,75.7,36.4,29.97,SE,131,3.0,10.0,24,0.00,CLR,,0.00,WeatherDisplay:10.37,2013-03-29 20:33:00,
2013-03-29 13:38:00,76.2,36.7,29.97,SE,141,6.0,10.0,24,0.00,CLR,,0.00,WeatherDisplay:10.37,2013-03-29 20:38:00,
2013-03-29 13:43:00,76.0,36.6,29.97,South,170,5.0,10.0,24,0.00,CLR,,0.00,WeatherDisplay:10.37,2013-03-29 20:43:00,
2013-03-29 13:48:00,76.5,37.0,29.97,South,179,6.0,10.0,24,0.00,CLR,,0.00,WeatherDisplay:10.37,2013-03-29 20:48:00,
2013-03-29 13:53:00,75.8,36.4,29.96,South,178,1.0,8.0,24,0.00,CLR,,0.00,WeatherDisplay:10.37,2013-03-29 20:53:00,
2013-03-29 13:58:00,76.7,36.1,29.96,South,179,2.0,12.0,23,0.00,CLR,,0.00,WeatherDisplay:10.37,2013-03-29 20:58:00,
2013-03-29 14:03:00,76.9,35.1,29.96,SE,145,12.0,18.0,22,0.00,CLR,,0.00,WeatherDisplay:10.37,2013-03-29 21:03:00,
2013-03-29 14:08:00,76.6,36.0,29.96,SE,125,12.0,18.0,23,0.00,CLR,,0.00,WeatherDisplay:10.37,2013-03-29 21:08:00,
2013-03-29 14:13:00,77.2,34.2,29.96,SE,135,10.0,17.0,21,0.00,CLR,,0.00,WeatherDisplay:10.37,2013-03-29 21:13:00,
2013-03-29 14:18:00,76.9,35.1,29.95,SE,143,2.0,12.0,22,0.00,CLR,,0.00,WeatherDisplay:10.37,2013-03-29 21:18:00,
2013-03-29 14:23:00,76.9,35.1,29.95,South,170,2.3,3.4,22,0.00,CLR,,0.00,WeatherDisplay:10.37,2013-03-29 21:23:00,
2013-03-29 14:28:00,77.0,34.1,29.95,SSE,148,13.0,17.0,21,0.00,CLR,,0.00,WeatherDisplay:10.37,2013-03-29 21:28:00,
2013-03-29 14:33:00,77.2,33.0,29.95,South,170,10.0,16.0,20,0.00,CLR,,0.00,WeatherDisplay:10.37,2013-03-29 21:33:00,
2013-03-29 14:38:00,78.0,33.7,29.95,South,178,9.0,14.0,20,0.00,CLR,,0.00,WeatherDisplay:10.37,2013-03-29 21:38:00,
2013-03-29 14:43:00,77.7,34.7,29.95,South,177,15.0,22.0,21,0.00,CLR,,0.00,WeatherDisplay:10.37,2013-03-29 21:43:00,
2013-03-29 14:48:00,77.4,34.3,29.95,South,173,8.0,20.0,21,0.00,CLR,,0.00,WeatherDisplay:10.37,2013-03-29 21:48:00,
2013-03-29 14:53:00,77.1,34.1,29.94,South,180,5.0,8.0,21,0.00,CLR,,0.00,WeatherDisplay:10.37,2013-03-29 21:53:00,
2013-03-29 14:58:00,77.5,34.4,29.94,SSW,203,8.0,10.0,21,0.00,CLR,,0.00,WeatherDisplay:10.37,2013-03-29 21:58:00,
2013-03-29 15:03:00,78.0,34.9,29.94,SSE,168,10.0,17.0,21,0.00,CLR,,0.00,WeatherDisplay:10.37,2013-03-29 22:03:00,
2013-03-29 15:08:00,77.0,34.1,29.94,SSE,150,10.0,17.0,21,0.00,CLR,,0.00,WeatherDisplay:10.37,2013-03-29 22:08:00,
2013-03-29 15:13:00,77.1,32.9,29.94,SSE,150,12.0,15.0,20,0.00,CLR,,0.00,WeatherDisplay:10.37,2013-03-29 22:13:00,
2013-03-29 15:18:00,76.9,32.8,29.94,SSE,149,9.0,15.0,20,0.00,CLR,,0.00,WeatherDisplay:10.37,2013-03-29 22:18:00,
2013-03-29 15:23:00,77.0,32.8,29.93,SSE,152,10.0,13.0,20,0.00,CLR,,0.00,WeatherDisplay:10.37,2013-03-29 22:23:00,
2013-03-29 15:28:00,77.1,32.9,29.93,SSE,157,6.0,14.0,20,0.00,CLR,,0.00,WeatherDisplay:10.37,2013-03-29 22:28:00,
2013-03-29 15:33:00,77.0,32.8,29.93,SSE,150,9.0,16.0,20,0.00,CLR,,0.00,WeatherDisplay:10.37,2013-03-29 22:33:00,
2013-03-29 15:38:00,77.6,32.1,29.93,SSE,156,15.0,20.0,19,0.00,CLR,,0.00,WeatherDisplay:10.37,2013-03-29 22:38:00,
2013-03-29 15:43:00,77.0,31.6,29.93,SSE,165,15.0,22.0,19,0.00,CLR,,0.00,WeatherDisplay:10.37,2013-03-29 22:43:00,
2013-03-29 15:48:00,77.4,33.2,29.93,SSE,168,9.0,21.0,20,0.00,CLR,,0.00,WeatherDisplay:10.37,2013-03-29 22:48:00,
2013-03-29 15:53:00,77.0,32.8,29.93,SSE,159,9.0,25.0,20,0.00,CLR,,0.00,WeatherDisplay:10.37,2013-03-29 22:53:00,
2013-03-29 15:58:00,77.1,34.1,29.93,SSE,155,16.0,20.0,21,0.00,CLR,,0.00,WeatherDisplay:10.37,2013-03-29 22:58:00,
2013-03-29 16:03:00,77.1,32.9,29.93,SSE,158,9.0,20.0,20,0.00,CLR,,0.00,WeatherDisplay:10.37,2013-03-29 23:03:00,
2013-03-29 16:08:00,77.3,33.1,29.93,SSE,164,14.0,16.0,20,0.00,CLR,,0.00,WeatherDisplay:10.37,2013-03-29 23:08:00,
2013-03-29 16:13:00,77.2,33.0,29.93,SSE,163,6.0,18.0,20,0.00,CLR,,0.00,WeatherDisplay:10.37,2013-03-29 23:13:00,
2013-03-29 16:18:00,77.0,34.1,29.92,SSE,157,8.0,14.0,21,0.00,CLR,,0.00,WeatherDisplay:10.37,2013-03-29 23:18:00,
2013-03-29 16:23:00,77.2,35.4,29.92,SSE,160,14.0,17.0,22,0.00,CLR,,0.00,WeatherDisplay:10.37,2013-03-29 23:23:00,
2013-03-29 16:28:00,76.8,35.1,29.92,SSW,197,18.4,18.4,22,0.00,CLR,,0.00,WeatherDisplay:10.37,2013-03-29 23:28:00,
2013-03-29 16:33:00,76.7,37.2,29.92,South,191,19.6,19.6,24,0.00,CLR,,0.00,WeatherDisplay:10.37,2013-03-29 23:33:00,
2013-03-29 16:38:00,76.7,38.2,29.92,SSE,154,20.7,20.7,25,0.00,CLR,,0.00,WeatherDisplay:10.37,2013-03-29 23:38:00,
2013-03-29 16:43:00,76.3,38.9,29.92,SSE,162,20.0,20.0,26,0.00,CLR,,0.00,WeatherDisplay:10.37,2013-03-29 23:43:00,
2013-03-29 16:48:00,76.0,39.6,29.91,SSE,166,27.6,27.6,27,0.00,CLR,,0.00,WeatherDisplay:10.37,2013-03-29 23:48:00,
2013-03-29 16:53:00,76.0,40.5,29.92,SSE,159,25.3,25.3,28,0.00,CLR,,0.00,WeatherDisplay:10.37,2013-03-29 23:53:00,
2013-03-29 16:59:00,75.6,42.0,29.92,SSE,161,25.3,25.3,30,0.00,CLR,,0.00,WeatherDisplay:10.37,2013-03-29 23:59:00,
2013-03-29 17:04:00,75.5,41.0,29.92,SSE,156,22.0,22.0,29,0.00,OVC,,0.00,WeatherDisplay:10.37,2013-03-30 00:04:00,
2013-03-29 17:09:00,75.0,42.3,29.92,SSE,157,24.2,24.2,31,0.00,OVC,,0.00,WeatherDisplay:10.37,2013-03-30 00:09:00,
2013-03-29 17:14:00,75.1,42.4,29.92,South,185,26.5,26.5,31,0.00,OVC,,0.00,WeatherDisplay:10.37,2013-03-30 00:14:00,
2013-03-29 17:19:00,75.1,43.2,29.92,South,174,24.2,24.2,32,0.00,OVC,,0.00,WeatherDisplay:10.37,2013-03-30 00:19:00,
2013-03-29 17:24:00,74.9,43.0,29.92,South,180,20.7,20.7,32,0.00,OVC,,0.00,WeatherDisplay:10.37,2013-03-30 00:24:00,
2013-03-29 17:29:00,74.5,43.5,29.92,South,180,26.5,26.5,33,0.00,OVC,,0.00,WeatherDisplay:10.37,2013-03-30 00:29:00,
2013-03-29 17:34:00,73.9,43.8,29.92,South,178,23.0,23.0,34,0.00,OVC,,0.00,WeatherDisplay:10.37,2013-03-30 00:34:00,
2013-03-29 17:40:00,73.2,43.1,29.92,South,179,21.9,21.9,34,0.00,OVC,,0.00,WeatherDisplay:10.37,2013-03-30 00:40:00,
2013-03-29 17:45:00,73.0,43.7,29.92,South,180,25.3,25.3,35,0.00,OVC,,0.00,WeatherDisplay:10.37,2013-03-30 00:45:00,
2013-03-29 17:50:00,72.7,43.5,29.92,South,180,19.6,19.6,35,0.00,OVC,,0.00,WeatherDisplay:10.37,2013-03-30 00:50:00,
2013-03-29 17:56:00,72.3,43.1,29.93,South,189,20.7,20.7,35,0.00,OVC,,0.00,WeatherDisplay:10.37,2013-03-30 00:56:00,
2013-03-29 18:01:00,72.3,43.8,29.93,South,183,22.0,22.0,36,0.00,OVC,,0.00,WeatherDisplay:10.37,2013-03-30 01:01:00,
2013-03-29 18:06:00,72.1,44.4,29.93,South,178,23.0,23.0,37,0.00,OVC,,0.00,WeatherDisplay:10.37,2013-03-30 01:06:00,
2013-03-29 18:12:00,71.9,44.2,29.92,South,186,26.5,26.5,37,0.00,OVC,,0.00,WeatherDisplay:10.37,2013-03-30 01:12:00,
2013-03-29 18:17:00,71.6,43.9,29.92,SSW,195,21.9,21.9,37,0.00,OVC,,0.00,WeatherDisplay:10.37,2013-03-30 01:17:00,
2013-03-29 18:22:00,71.4,43.8,29.92,SSE,156,21.0,21.0,37,0.00,OVC,,0.00,WeatherDisplay:10.37,2013-03-30 01:22:00,
2013-03-29 18:27:00,71.0,43.4,29.92,South,185,23.0,23.0,37,0.00,OVC,,0.00,WeatherDisplay:10.37,2013-03-30 01:27:00,
2013-03-29 18:32:00,71.1,43.5,29.93,South,180,21.9,21.9,37,0.00,OVC,,0.00,WeatherDisplay:10.37,2013-03-30 01:32:00,
2013-03-29 18:37:00,71.1,42.0,29.93,South,184,23.0,23.0,35,0.00,OVC,,0.00,WeatherDisplay:10.37,2013-03-30 01:37:00,
2013-03-29 18:43:00,70.9,41.9,29.93,South,184,24.2,24.2,35,0.00,OVC,,0.00,WeatherDisplay:10.37,2013-03-30 01:43:00,
2013-03-29 18:48:00,70.8,41.8,29.93,South,173,21.9,21.9,35,0.00,OVC,,0.00,WeatherDisplay:10.37,2013-03-30 01:48:00,
2013-03-29 18:53:00,70.6,41.6,29.93,South,181,22.0,22.0,35,0.00,OVC,,0.00,WeatherDisplay:10.37,2013-03-30 01:53:00,
2013-03-29 18:58:00,70.5,41.5,29.93,South,181,14.0,21.0,35,0.00,CLR,,0.00,WeatherDisplay:10.37,2013-03-30 01:58:00,
2013-03-29 19:03:00,70.3,41.3,29.93,South,186,17.0,20.0,35,0.00,CLR,,0.00,WeatherDisplay:10.37,2013-03-30 02:03:00,
2013-03-29 19:08:00,70.1,41.2,29.93,South,189,17.0,21.0,35,0.00,CLR,,0.00,WeatherDisplay:10.37,2013-03-30 02:08:00,
2013-03-29 19:13:00,69.8,40.9,29.93,SSW,193,17.3,17.3,35,0.00,OVC,,0.00,WeatherDisplay:10.37,2013-03-30 02:13:00,
2013-03-29 19:18:00,69.7,40.8,29.93,South,188,16.0,20.0,35,0.00,CLR,,0.00,WeatherDisplay:10.37,2013-03-30 02:18:00,
2013-03-29 19:23:00,69.6,40.0,29.93,South,185,15.0,20.0,34,0.00,CLR,,0.00,WeatherDisplay:10.37,2013-03-30 02:23:00,
2013-03-29 19:28:00,69.5,39.9,29.94,South,185,16.0,22.0,34,0.00,CLR,,0.00,WeatherDisplay:10.37,2013-03-30 02:28:00,
2013-03-29 19:33:00,69.3,40.5,29.94,South,187,14.0,18.0,35,0.00,CLR,,0.00,WeatherDisplay:10.37,2013-03-30 02:33:00,
2013-03-29 19:38:00,69.3,39.7,29.94,South,187,15.0,20.0,34,0.00,CLR,,0.00,WeatherDisplay:10.37,2013-03-30 02:38:00,
2013-03-29 19:43:00,69.3,39.7,29.94,South,189,13.0,17.0,34,0.00,CLR,,0.00,WeatherDisplay:10.37,2013-03-30 02:43:00,
2013-03-29 19:48:00,69.0,39.4,29.94,SSW,194,9.0,13.0,34,0.00,CLR,,0.00,WeatherDisplay:10.37,2013-03-30 02:48:00,
2013-03-29 19:53:00,68.7,38.4,29.94,SSW,209,9.2,9.2,33,0.00,OVC,,0.00,WeatherDisplay:10.37,2013-03-30 02:53:00,
2013-03-29 19:58:00,68.5,38.2,29.94,SSW,209,8.0,9.0,33,0.00,CLR,,0.00,WeatherDisplay:10.37,2013-03-30 02:58:00,
2013-03-29 20:03:00,68.3,38.8,29.94,SW,219,10.4,10.4,34,0.00,OVC,,0.00,WeatherDisplay:10.37,2013-03-30 03:03:00,
2013-03-29 20:08:00,68.1,38.6,29.94,SW,219,7.0,9.0,34,0.00,CLR,,0.00,WeatherDisplay:10.37,2013-03-30 03:08:00,
2013-03-29 20:13:00,67.9,38.5,29.95,SSW,207,9.2,9.2,34,0.00,OVC,,0.00,WeatherDisplay:10.37,2013-03-30 03:13:00,
2013-03-29 20:18:00,67.4,38.0,29.95,SSW,212,8.1,8.1,34,0.00,OVC,,0.00,WeatherDisplay:10.37,2013-03-30 03:18:00,
2013-03-29 20:23:00,67.3,38.0,29.95,SSW,203,9.2,9.2,34,0.00,OVC,,0.00,WeatherDisplay:10.37,2013-03-30 03:23:00,
2013-03-29 20:28:00,66.7,37.4,29.95,South,191,8.1,8.1,34,0.00,OVC,,0.00,WeatherDisplay:10.37,2013-03-30 03:28:00,
2013-03-29 20:33:00,66.2,37.0,29.95,South,180,9.2,9.2,34,0.00,OVC,,0.00,WeatherDisplay:10.37,2013-03-30 03:33:00,
2013-03-29 20:39:00,66.7,37.4,29.95,SSW,192,9.2,9.2,34,0.00,OVC,,0.00,WeatherDisplay:10.37,2013-03-30 03:39:00,
2013-03-29 20:44:00,66.6,36.6,29.96,South,186,9.2,9.2,33,0.00,OVC,,0.00,WeatherDisplay:10.37,2013-03-30 03:44:00,
2013-03-29 20:49:00,66.0,36.8,29.96,South,187,11.5,11.5,34,0.00,OVC,,0.00,WeatherDisplay:10.37,2013-03-30 03:49:00,
2013-03-29 20:54:00,65.4,36.3,29.96,South,191,6.9,6.9,34,0.00,OVC,,0.00,WeatherDisplay:10.37,2013-03-30 03:54:00,
2013-03-29 20:59:00,65.0,36.7,29.96,South,188,8.1,8.1,35,0.00,OVC,,0.00,WeatherDisplay:10.37,2013-03-30 03:59:00,
2013-03-29 21:00:00,64.9,36.6,29.96,South,188,8.1,8.1,35,0.00,OVC,,0.00,WeatherDisplay:10.37,2013-03-30 04:00:00,
2013-03-29 21:01:00,65.0,36.7,29.96,South,188,8.1,8.1,35,0.00,OVC,,0.00,WeatherDisplay:10.37,2013-03-30 04:01:00,
2013-03-29 21:07:00,64.9,35.1,29.96,South,176,9.2,9.2,33,0.00,OVC,,0.00,WeatherDisplay:10.37,2013-03-30 04:07:00,
2013-03-29 21:12:00,64.1,35.1,29.96,South,176,8.1,8.1,34,0.00,OVC,,0.00,WeatherDisplay:10.37,2013-03-30 04:12:00,
2013-03-29 21:17:00,63.5,35.3,29.97,SSE,161,7.0,7.0,35,0.00,OVC,,0.00,WeatherDisplay:10.37,2013-03-30 04:17:00,
2013-03-29 21:22:00,62.7,35.3,29.97,SSE,165,8.1,8.1,36,0.00,OVC,,0.00,WeatherDisplay:10.37,2013-03-30 04:22:00,
2013-03-29 21:27:00,62.2,35.6,29.97,SSE,167,12.0,12.0,37,0.00,OVC,,0.00,WeatherDisplay:10.37,2013-03-30 04:27:00,
2013-03-29 21:32:00,62.2,34.9,29.97,SW,228,8.1,8.1,36,0.00,OVC,,0.00,WeatherDisplay:10.37,2013-03-30 04:32:00,
2013-03-29 21:37:00,62.2,34.9,29.97,South,191,8.1,8.1,36,0.00,OVC,,0.00,WeatherDisplay:10.37,2013-03-30 04:37:00,
2013-03-29 21:42:00,63.1,34.3,29.97,SSW,200,9.2,9.2,34,0.00,OVC,,0.00,WeatherDisplay:10.37,2013-03-30 04:42:00,
2013-03-29 21:48:00,63.3,34.4,29.98,SSW,204,7.0,8.0,34,0.00,CLR,,0.00,WeatherDisplay:10.37,2013-03-30 04:48:00,
2013-03-29 21:53:00,63.4,34.5,29.98,South,185,10.4,10.4,34,0.00,OVC,,0.00,WeatherDisplay:10.37,2013-03-30 04:53:00,
2013-03-29 21:58:00,63.4,34.5,29.98,South,185,9.0,10.0,34,0.00,CLR,,0.00,WeatherDisplay:10.37,2013-03-30 04:58:00,
2013-03-29 22:03:00,63.0,34.2,29.98,South,186,9.0,12.0,34,0.00,CLR,,0.00,WeatherDisplay:10.37,2013-03-30 05:03:00,
2013-03-29 22:08:00,63.0,34.2,29.98,SSW,198,8.0,10.0,34,0.00,CLR,,0.00,WeatherDisplay:10.37,2013-03-30 05:08:00,
2013-03-29 22:13:00,62.5,33.7,29.98,SSW,204,7.0,8.0,34,0.00,CLR,,0.00,WeatherDisplay:10.37,2013-03-30 05:13:00,
2013-03-29 22:18:00,62.5,33.7,29.99,SSW,198,7.0,8.0,34,0.00,CLR,,0.00,WeatherDisplay:10.37,2013-03-30 05:18:00,
2013-03-29 22:23:00,62.2,33.5,29.98,South,190,7.0,9.0,34,0.00,CLR,,0.00,WeatherDisplay:10.37,2013-03-30 05:23:00,
2013-03-29 22:28:00,62.0,33.3,29.98,South,191,7.0,9.0,34,0.00,CLR,,0.00,WeatherDisplay:10.37,2013-03-30 05:28:00,
2013-03-29 22:33:00,62.0,33.3,29.99,SSW,194,7.0,9.0,34,0.00,CLR,,0.00,WeatherDisplay:10.37,2013-03-30 05:33:00,
2013-03-29 22:38:00,60.9,33.7,29.99,South,184,10.0,12.0,36,0.00,CLR,,0.00,WeatherDisplay:10.37,2013-03-30 05:38:00,
2013-03-29 22:43:00,60.9,33.0,29.99,South,178,9.0,12.0,35,0.00,CLR,,0.00,WeatherDisplay:10.37,2013-03-30 05:43:00,
2013-03-29 22:48:00,60.3,33.2,29.99,South,175,6.0,9.0,36,0.00,CLR,,0.00,WeatherDisplay:10.37,2013-03-30 05:48:00,
2013-03-29 22:53:00,59.4,33.8,29.99,South,171,6.0,9.0,38,0.00,CLR,,0.00,WeatherDisplay:10.37,2013-03-30 05:53:00,
2013-03-29 22:58:00,58.7,32.4,29.99,South,176,1.0,2.0,37,0.00,CLR,,0.00,WeatherDisplay:10.37,2013-03-30 05:58:00,
2013-03-29 23:03:00,58.4,32.9,29.99,SW,234,5.0,8.0,38,0.00,CLR,,0.00,WeatherDisplay:10.37,2013-03-30 06:03:00,
2013-03-29 23:08:00,60.3,32.5,29.99,West,260,7.0,9.0,35,0.00,CLR,,0.00,WeatherDisplay:10.37,2013-03-30 06:08:00,
2013-03-29 23:13:00,61.9,32.5,29.99,WSW,249,8.1,8.1,33,0.00,OVC,,0.00,WeatherDisplay:10.37,2013-03-30 06:13:00,
2013-03-29 23:19:00,61.3,31.9,29.99,SW,232,10.4,10.4,33,0.00,OVC,,0.00,WeatherDisplay:10.37,2013-03-30 06:19:00,
2013-03-29 23:24:00,61.2,31.8,29.98,SW,222,9.2,9.2,33,0.00,OVC,,0.00,WeatherDisplay:10.37,2013-03-30 06:24:00,
2013-03-29 23:29:00,60.7,32.1,29.98,SSW,205,8.1,8.1,34,0.00,OVC,,0.00,WeatherDisplay:10.37,2013-03-30 06:29:00,
2013-03-29 23:34:00,60.2,31.7,29.99,South,181,8.0,8.0,34,0.00,OVC,,0.00,WeatherDisplay:10.37,2013-03-30 06:34:00,
2013-03-29 23:39:00,60.4,31.9,29.99,SSW,196,9.2,9.2,34,0.00,OVC,,0.00,WeatherDisplay:10.37,2013-03-30 06:39:00,
2013-03-29 23:44:00,61.8,32.4,29.99,SSW,198,10.4,10.4,33,0.00,OVC,,0.00,WeatherDisplay:10.37,2013-03-30 06:44:00,
2013-03-29 23:49:00,62.6,32.3,29.98,South,186,11.5,11.5,32,0.00,OVC,,0.00,WeatherDisplay:10.37,2013-03-30 06:49:00,
2013-03-29 23:55:00,62.4,32.1,29.98,South,186,12.0,12.0,32,0.00,OVC,,0.00,WeatherDisplay:10.37,2013-03-30 06:55:00,